Time;durP1;ratioP1;P1;durP2;ratioP2;P2;SDS_P1;SDS_P2;PMS_P1;PMS_P2;Temp;Humidity;BMP_temperature;BMP_pressure;BME280_temperature;BME280_humidity;BME280_pressure;Samples;Min_cycle;Max_cycle;Signal;HPM_P1;HPM_P2
2023/07/04 00:01:02;;;;;;;5.97;1.73;;;;;;;;;;5020410;28;20053;-81
2023/07/04 00:03:30;;;;;;;3.58;1.67;;;;;;;;;;5021793;28;20065;-83
2023/07/04 00:05:57;;;;;;;4.70;2.00;;;;;;;;;;5038271;28;20120;-83
2023/07/04 00:08:27;;;;;;;3.47;1.67;;;;;;;;;;5003785;28;20116;-81
2023/07/04 00:10:57;;;;;;;3.08;1.42;;;;;;;;;;5018406;28;20128;-84
2023/07/04 00:13:26;;;;;;;4.10;1.65;;;;;;;;;;5048156;28;20095;-84
2023/07/04 00:15:53;;;;;;;4.15;1.80;;;;;;;;;;5028260;28;20065;-84
2023/07/04 00:18:21;;;;;;;5.75;1.90;;;;;;;;;;5028299;28;20128;-83
2023/07/04 00:20:53;;;;;;;5.63;1.65;;;;;;;;;;5030123;28;20029;-85
2023/07/04 00:23:20;;;;;;;4.38;1.65;;;;;;;;;;5027895;28;20421;-84
2023/07/04 00:25:47;;;;;;;5.30;1.60;;;;;;;;;;5041876;28;20539;-83
2023/07/04 00:28:13;;;;;;;6.90;1.50;;;;;;;;;;5023367;28;20068;-83
2023/07/04 00:30:40;;;;;;;2.72;1.63;;;;;;;;;;5040958;28;20069;-81
2023/07/04 00:33:06;;;;;;;4.32;1.60;;;;;;;;;;5023310;28;20056;-81
2023/07/04 00:35:33;;;;;;;4.07;1.75;;;;;;;;;;5014240;28;20501;-82
2023/07/04 00:37:59;;;;;;;7.97;1.80;;;;;;;;;;4999049;28;20064;-79
2023/07/04 00:40:27;;;;;;;5.20;1.45;;;;;;;;;;5016178;28;20046;-81
2023/07/04 00:43:02;;;;;;;2.45;1.50;;;;;;;;;;5014780;28;20049;-82
2023/07/04 00:45:31;;;;;;;3.63;1.65;;;;;;;;;;5014102;28;20057;-81
2023/07/04 00:48:00;;;;;;;4.88;1.75;;;;;;;;;;5016338;28;20525;-81
2023/07/04 00:50:31;;;;;;;3.63;1.42;;;;;;;;;;5019352;28;20546;-82
2023/07/04 00:53:04;;;;;;;3.90;1.33;;;;;;;;;;5020115;28;20042;-81
2023/07/04 00:55:31;;;;;;;3.85;1.60;;;;;;;;;;5020842;28;20061;-80
2023/07/04 00:58:04;;;;;;;3.80;1.40;;;;;;;;;;5006347;28;20059;-82
2023/07/04 01:00:32;;;;;;;7.35;2.10;;;;;;;;;;5008392;28;20061;-81
2023/07/04 01:03:04;;;;;;;3.70;1.30;;;;;;;;;;5007651;28;20480;-82
2023/07/04 01:05:36;;;;;;;3.55;1.48;;;;;;;;;;5025309;28;20053;-81
2023/07/04 01:08:05;;;;;;;4.75;1.40;;;;;;;;;;5043044;28;20045;-83
2023/07/04 01:10:35;;;;;;;3.42;1.40;;;;;;;;;;5014014;28;20053;-82
2023/07/04 01:13:02;;;;;;;6.13;1.42;;;;;;;;;;4997039;28;20049;-81
2023/07/04 01:15:29;;;;;;;3.85;1.30;;;;;;;;;;5014910;28;20266;-83
2023/07/04 01:17:56;;;;;;;5.65;1.50;;;;;;;;;;5014152;28;20052;-82
2023/07/04 01:20:23;;;;;;;4.05;1.45;;;;;;;;;;5011650;28;20045;-81
2023/07/04 01:23:14;;;;;;;5.70;1.80;;;;;;;;;;5013488;28;20064;-83
2023/07/04 01:25:46;;;;;;;4.05;1.40;;;;;;;;;;5015757;28;20073;-80
2023/07/04 01:28:14;;;;;;;3.53;1.35;;;;;;;;;;5017550;28;20037;-82
2023/07/04 01:30:42;;;;;;;4.20;1.58;;;;;;;;;;5017733;28;20133;-83
2023/07/04 01:33:09;;;;;;;4.90;1.45;;;;;;;;;;5013112;28;20069;-82
2023/07/04 01:35:36;;;;;;;6.32;1.48;;;;;;;;;;5034441;28;20464;-83
2023/07/04 01:38:06;;;;;;;3.85;1.25;;;;;;;;;;5019745;28;20104;-82
2023/07/04 01:40:34;;;;;;;3.67;1.27;;;;;;;;;;5017292;28;20505;-81
2023/07/04 01:43:01;;;;;;;3.10;1.55;;;;;;;;;;5022099;28;20118;-81
2023/07/04 01:45:28;;;;;;;4.50;1.52;;;;;;;;;;5029808;28;20046;-82
2023/07/04 01:47:55;;;;;;;4.68;1.67;;;;;;;;;;5020037;28;21143;-82
2023/07/04 01:50:23;;;;;;;2.78;1.40;;;;;;;;;;5003942;28;20093;-82
2023/07/04 01:52:49;;;;;;;4.97;1.40;;;;;;;;;;5021811;28;20057;-81
2023/07/04 01:55:16;;;;;;;3.70;1.27;;;;;;;;;;5007716;28;20046;-81
2023/07/04 01:57:43;;;;;;;3.25;1.33;;;;;;;;;;5038285;28;20288;-82
2023/07/04 02:00:12;;;;;;;5.45;1.52;;;;;;;;;;5010618;28;20053;-82
2023/07/04 02:02:54;;;;;;;4.32;1.52;;;;;;;;;;5031662;28;20037;-82
2023/07/04 02:05:21;;;;;;;4.10;1.70;;;;;;;;;;5024809;28;20307;-82
2023/07/04 02:07:48;;;;;;;3.63;1.42;;;;;;;;;;5017907;28;20049;-82
2023/07/04 02:10:15;;;;;;;4.97;1.40;;;;;;;;;;5002439;28;20056;-83
2023/07/04 02:12:41;;;;;;;5.57;1.42;;;;;;;;;;5019274;28;20052;-83
2023/07/04 02:15:08;;;;;;;4.55;1.50;;;;;;;;;;5003514;28;20136;-81
2023/07/04 02:17:35;;;;;;;4.47;1.45;;;;;;;;;;5039306;28;20482;-80
2023/07/04 02:20:03;;;;;;;4.22;1.40;;;;;;;;;;5017099;28;20472;-80
2023/07/04 02:22:31;;;;;;;3.72;1.40;;;;;;;;;;5017432;28;20041;-82
2023/07/04 02:24:58;;;;;;;5.35;1.42;;;;;;;;;;5017862;28;20262;-81
2023/07/04 02:27:24;;;;;;;5.05;1.58;;;;;;;;;;5002656;28;20193;-81
2023/07/04 02:29:51;;;;;;;3.50;1.23;;;;;;;;;;5010900;28;20041;-82
2023/07/04 02:32:17;;;;;;;4.18;1.27;;;;;;;;;;5007770;28;20079;-82
2023/07/04 02:34:44;;;;;;;2.78;1.30;;;;;;;;;;5018015;28;20410;-80
2023/07/04 02:37:14;;;;;;;2.40;1.23;;;;;;;;;;5000669;28;20461;-84
2023/07/04 02:39:40;;;;;;;2.80;1.33;;;;;;;;;;5018000;28;20045;-81
2023/07/04 02:42:07;;;;;;;5.28;1.40;;;;;;;;;;5010983;28;20274;-81
2023/07/04 02:44:35;;;;;;;2.80;1.52;;;;;;;;;;5022517;28;20046;-82
2023/07/04 02:47:04;;;;;;;3.15;1.45;;;;;;;;;;5020839;28;20041;-82
2023/07/04 02:49:35;;;;;;;4.20;1.35;;;;;;;;;;5001073;28;20053;-80
2023/07/04 02:52:02;;;;;;;4.35;1.83;;;;;;;;;;4993557;28;20050;-82
2023/07/04 02:54:29;;;;;;;3.80;1.40;;;;;;;;;;4995202;28;20123;-81
2023/07/04 02:56:55;;;;;;;5.30;1.63;;;;;;;;;;5021363;28;20048;-81
2023/07/04 02:59:22;;;;;;;4.70;1.50;;;;;;;;;;5017209;28;20096;-80
2023/07/04 03:01:51;;;;;;;3.95;1.55;;;;;;;;;;5024753;28;20069;-82
2023/07/04 03:04:19;;;;;;;6.05;1.50;;;;;;;;;;5009486;28;20041;-82
2023/07/04 03:06:46;;;;;;;3.03;1.40;;;;;;;;;;5009098;28;20041;-82
2023/07/04 03:09:14;;;;;;;3.65;1.35;;;;;;;;;;5026170;28;20029;-82
2023/07/04 03:11:41;;;;;;;3.47;1.50;;;;;;;;;;5024694;28;20099;-82
2023/07/04 03:14:08;;;;;;;5.95;1.92;;;;;;;;;;5005146;28;20038;-82
2023/07/04 03:16:34;;;;;;;4.78;1.70;;;;;;;;;;5011601;28;20521;-82
2023/07/04 03:19:02;;;;;;;4.72;1.70;;;;;;;;;;4997322;28;20128;-82
2023/07/04 03:21:29;;;;;;;5.88;2.10;;;;;;;;;;4999784;28;20508;-82
2023/07/04 03:23:57;;;;;;;4.50;1.77;;;;;;;;;;5020893;28;20049;-82
2023/07/04 03:26:24;;;;;;;5.28;2.38;;;;;;;;;;5025000;28;20053;-83
2023/07/04 03:28:51;;;;;;;3.55;1.90;;;;;;;;;;5025022;28;20045;-81
2023/07/04 03:31:18;;;;;;;5.60;2.03;;;;;;;;;;5037468;28;20084;-82
2023/07/04 03:33:46;;;;;;;4.03;1.90;;;;;;;;;;5007777;28;20041;-81
2023/07/04 03:36:14;;;;;;;4.35;1.88;;;;;;;;;;5005693;28;20610;-80
2023/07/04 03:38:41;;;;;;;5.10;1.75;;;;;;;;;;4977497;28;20042;-81
2023/07/04 03:41:07;;;;;;;4.30;2.20;;;;;;;;;;4993808;28;20053;-81
2023/07/04 03:43:34;;;;;;;4.65;2.03;;;;;;;;;;4997737;28;20057;-82
2023/07/04 03:46:00;;;;;;;4.72;2.15;;;;;;;;;;5025446;28;20052;-81
2023/07/04 03:48:27;;;;;;;5.68;2.28;;;;;;;;;;5047479;28;20520;-80
2023/07/04 03:50:54;;;;;;;4.70;2.10;;;;;;;;;;5025134;28;20072;-83
2023/07/04 03:53:21;;;;;;;4.35;2.15;;;;;;;;;;5020704;28;20128;-81
2023/07/04 03:55:48;;;;;;;5.65;2.35;;;;;;;;;;5019898;28;20057;-83
2023/07/04 03:58:17;;;;;;;4.80;2.10;;;;;;;;;;5018428;28;20042;-80
2023/07/04 04:00:47;;;;;;;6.53;2.20;;;;;;;;;;5019132;28;20053;-80
2023/07/04 04:03:14;;;;;;;4.07;1.95;;;;;;;;;;5018457;28;20116;-82
2023/07/04 04:05:41;;;;;;;4.47;1.90;;;;;;;;;;5017106;28;20050;-81
2023/07/04 04:08:08;;;;;;;5.80;1.85;;;;;;;;;;5011408;28;20152;-82
2023/07/04 04:10:35;;;;;;;4.43;1.92;;;;;;;;;;5018127;28;20052;-81
2023/07/04 04:13:01;;;;;;;7.00;2.40;;;;;;;;;;4984257;28;20046;-84
2023/07/04 04:15:28;;;;;;;7.35;2.38;;;;;;;;;;5002322;28;20053;-83
2023/07/04 04:17:55;;;;;;;6.60;2.28;;;;;;;;;;5006057;28;20042;-86
2023/07/04 04:20:22;;;;;;;6.28;2.08;;;;;;;;;;5003336;28;20547;-82
2023/07/04 04:22:49;;;;;;;11.63;2.42;;;;;;;;;;5018137;28;20054;-81
2023/07/04 04:25:16;;;;;;;4.40;2.08;;;;;;;;;;5000122;28;20046;-81
2023/07/04 04:27:46;;;;;;;4.25;2.15;;;;;;;;;;5017196;28;20586;-82
2023/07/04 04:30:15;;;;;;;5.20;2.30;;;;;;;;;;5047315;28;20068;-82
2023/07/04 04:32:44;;;;;;;6.13;2.40;;;;;;;;;;5018279;28;20052;-81
2023/07/04 04:35:25;;;;;;;4.78;2.40;;;;;;;;;;5035352;28;20068;-80
2023/07/04 04:37:54;;;;;;;5.15;2.17;;;;;;;;;;5006148;28;20042;-82
2023/07/04 04:40:21;;;;;;;3.85;2.13;;;;;;;;;;5022211;28;20169;-83
2023/07/04 04:42:53;;;;;;;5.65;2.20;;;;;;;;;;4988502;28;20050;-81
2023/07/04 04:45:30;;;;;;;5.07;2.00;;;;;;;;;;5020468;28;20046;-81
2023/07/04 04:47:56;;;;;;;6.05;2.40;;;;;;;;;;5005932;28;20109;-83
2023/07/04 04:50:24;;;;;;;5.60;2.30;;;;;;;;;;5024938;28;20762;-81
2023/07/04 04:52:53;;;;;;;6.65;2.63;;;;;;;;;;5024343;28;20105;-80
2023/07/04 04:55:20;;;;;;;4.72;2.45;;;;;;;;;;5024025;28;20265;-81
2023/07/04 04:57:47;;;;;;;8.20;2.22;;;;;;;;;;5009480;28;20034;-84
2023/07/04 05:00:16;;;;;;;6.15;2.42;;;;;;;;;;5010866;28;20045;-81
2023/07/04 05:02:45;;;;;;;4.38;2.08;;;;;;;;;;4997963;28;20105;-81
2023/07/04 05:05:12;;;;;;;4.15;1.98;;;;;;;;;;5029649;28;20131;-82
2023/07/04 05:07:38;;;;;;;5.07;2.50;;;;;;;;;;5045953;28;20042;-84
2023/07/04 05:10:05;;;;;;;5.18;2.40;;;;;;;;;;5038390;28;20067;-79
2023/07/04 05:12:32;;;;;;;7.53;2.58;;;;;;;;;;5046588;28;20041;-81
2023/07/04 05:15:11;;;;;;;6.05;2.42;;;;;;;;;;5046030;28;20037;-82
2023/07/04 05:17:39;;;;;;;5.35;2.50;;;;;;;;;;5047152;28;20071;-83
2023/07/04 05:20:06;;;;;;;5.10;2.30;;;;;;;;;;5064287;28;20049;-82
2023/07/04 05:22:39;;;;;;;5.35;2.30;;;;;;;;;;5046655;28;20041;-82
2023/07/04 05:25:06;;;;;;;4.47;2.28;;;;;;;;;;5046223;28;20071;-82
2023/07/04 05:27:32;;;;;;;4.47;2.33;;;;;;;;;;5063071;28;20051;-81
2023/07/04 05:30:04;;;;;;;5.07;2.25;;;;;;;;;;5064853;28;20053;-82
2023/07/04 05:32:31;;;;;;;7.22;2.47;;;;;;;;;;5064397;28;20072;-82
2023/07/04 05:34:58;;;;;;;6.32;2.70;;;;;;;;;;5064089;28;20433;-85
2023/07/04 05:37:25;;;;;;;6.97;2.38;;;;;;;;;;5046597;28;20045;-81
2023/07/04 05:39:51;;;;;;;7.05;3.17;;;;;;;;;;5046597;28;20097;-83
2023/07/04 05:42:18;;;;;;;5.47;2.90;;;;;;;;;;5045745;28;20037;-83
2023/07/04 05:44:44;;;;;;;5.57;2.53;;;;;;;;;;5005862;28;20050;-83
2023/07/04 05:47:13;;;;;;;5.40;2.95;;;;;;;;;;5025238;28;20184;-81
2023/07/04 05:49:42;;;;;;;4.90;2.47;;;;;;;;;;5024011;28;20049;-82
2023/07/04 05:52:10;;;;;;;6.15;2.92;;;;;;;;;;5016597;28;20045;-81
2023/07/04 05:54:37;;;;;;;7.20;3.33;;;;;;;;;;5016326;28;20049;-81
2023/07/04 05:57:04;;;;;;;8.68;2.78;;;;;;;;;;5023943;28;20054;-82
2023/07/04 05:59:31;;;;;;;6.38;2.90;;;;;;;;;;5006589;28;20114;-85
2023/07/04 06:02:09;;;;;;;8.80;3.28;;;;;;;;;;5029675;28;20124;-82
2023/07/04 06:04:35;;;;;;;6.00;2.97;;;;;;;;;;5029433;28;20057;-80
2023/07/04 06:07:07;;;;;;;6.22;3.00;;;;;;;;;;5025918;28;20080;-81
2023/07/04 06:09:34;;;;;;;7.88;3.15;;;;;;;;;;5025462;28;20068;-84
2023/07/04 06:12:04;;;;;;;7.72;3.22;;;;;;;;;;5023507;28;20073;-83
2023/07/04 06:14:37;;;;;;;7.90;3.55;;;;;;;;;;5022766;28;20061;-83
2023/07/04 06:17:04;;;;;;;6.85;3.22;;;;;;;;;;5022838;28;20065;-85
2023/07/04 06:19:31;;;;;;;8.82;3.40;;;;;;;;;;5008596;28;20522;-84
2023/07/04 06:21:58;;;;;;;8.63;3.45;;;;;;;;;;5023623;28;20100;-83
2023/07/04 06:24:25;;;;;;;7.15;3.70;;;;;;;;;;5025060;28;20505;-83
2023/07/04 06:26:52;;;;;;;12.80;3.67;;;;;;;;;;5023945;28;20069;-85
2023/07/04 06:29:18;;;;;;;5.95;3.03;;;;;;;;;;5025794;28;20045;-84
2023/07/04 06:31:47;;;;;;;9.55;3.85;;;;;;;;;;5024607;28;20073;-82
2023/07/04 06:34:14;;;;;;;10.98;3.70;;;;;;;;;;5022558;28;20073;-84
2023/07/04 06:36:42;;;;;;;8.90;3.65;;;;;;;;;;5004174;28;20053;-81
2023/07/04 06:39:11;;;;;;;9.13;3.92;;;;;;;;;;5016903;28;20046;-83
2023/07/04 06:41:37;;;;;;;6.68;3.30;;;;;;;;;;5025221;28;20052;-83
2023/07/04 06:44:05;;;;;;;9.07;3.53;;;;;;;;;;5030597;28;20053;-83
2023/07/04 06:46:31;;;;;;;10.73;3.85;;;;;;;;;;5048189;28;20200;-82
2023/07/04 06:48:58;;;;;;;9.10;3.33;;;;;;;;;;5001955;28;20493;-81
2023/07/04 06:51:30;;;;;;;7.78;3.30;;;;;;;;;;5004497;28;20152;-83
2023/07/04 06:53:57;;;;;;;9.57;3.20;;;;;;;;;;5047154;28;20057;-84
2023/07/04 06:56:24;;;;;;;7.05;3.20;;;;;;;;;;5023314;28;20038;-84
2023/07/04 06:58:51;;;;;;;9.63;3.33;;;;;;;;;;4980923;28;20096;-84
2023/07/04 07:01:22;;;;;;;6.47;3.10;;;;;;;;;;4981768;28;20093;-81
2023/07/04 07:03:50;;;;;;;6.03;2.65;;;;;;;;;;4997403;28;20050;-85
2023/07/04 07:06:16;;;;;;;8.93;3.45;;;;;;;;;;4998184;28;20069;-83
2023/07/04 07:08:43;;;;;;;8.68;2.75;;;;;;;;;;5018471;28;20129;-83
2023/07/04 07:11:11;;;;;;;10.95;3.00;;;;;;;;;;5010990;28;20066;-82
2023/07/04 07:13:38;;;;;;;11.05;2.92;;;;;;;;;;5029598;28;20110;-84
2023/07/04 07:16:05;;;;;;;12.00;3.70;;;;;;;;;;5030014;28;20122;-84
2023/07/04 07:18:33;;;;;;;9.43;3.10;;;;;;;;;;5011988;28;20088;-85
2023/07/04 07:21:01;;;;;;;6.60;2.97;;;;;;;;;;4997083;28;20057;-86
2023/07/04 07:23:28;;;;;;;8.70;3.00;;;;;;;;;;5028799;28;20061;-83
2023/07/04 07:25:55;;;;;;;8.60;2.80;;;;;;;;;;5032658;28;20033;-84
2023/07/04 07:28:23;;;;;;;9.70;2.90;;;;;;;;;;5014061;28;20042;-84
2023/07/04 07:31:04;;;;;;;9.98;3.35;;;;;;;;;;5030773;28;20026;-82
2023/07/04 07:33:31;;;;;;;6.80;3.17;;;;;;;;;;5013418;28;20052;-84
2023/07/04 07:35:58;;;;;;;7.60;2.80;;;;;;;;;;5013741;28;20288;-84
2023/07/04 07:38:25;;;;;;;6.18;3.00;;;;;;;;;;5012918;28;20073;-85
2023/07/04 07:40:52;;;;;;;9.63;2.75;;;;;;;;;;5028844;28;20080;-84
2023/07/04 07:43:19;;;;;;;6.10;2.78;;;;;;;;;;5017282;28;20761;-85
2023/07/04 07:45:46;;;;;;;7.05;2.60;;;;;;;;;;5024109;28;20045;-82
2023/07/04 07:48:13;;;;;;;6.00;2.70;;;;;;;;;;5033017;28;20072;-83
2023/07/04 07:50:41;;;;;;;8.55;2.75;;;;;;;;;;5048751;28;20037;-83
2023/07/04 07:53:07;;;;;;;7.32;2.70;;;;;;;;;;5030133;28;20045;-86
2023/07/04 07:55:34;;;;;;;5.03;2.72;;;;;;;;;;5030902;28;20045;-81
2023/07/04 07:58:01;;;;;;;6.55;2.60;;;;;;;;;;5016527;28;20041;-84
2023/07/04 08:00:29;;;;;;;9.35;2.50;;;;;;;;;;5033846;28;20033;-86
2023/07/04 08:02:55;;;;;;;6.47;2.90;;;;;;;;;;5032317;28;20043;-87
2023/07/04 08:05:22;;;;;;;5.63;2.53;;;;;;;;;;5032301;28;20080;-82
2023/07/04 08:07:49;;;;;;;8.68;2.78;;;;;;;;;;5049093;28;20040;-85
2023/07/04 08:10:16;;;;;;;7.72;3.00;;;;;;;;;;5032122;28;20049;-82
2023/07/04 08:12:42;;;;;;;8.05;3.13;;;;;;;;;;5048856;28;20053;-84
2023/07/04 08:15:12;;;;;;;6.97;2.83;;;;;;;;;;5047638;28;20095;-82
2023/07/04 08:17:39;;;;;;;6.40;2.97;;;;;;;;;;5045477;28;20037;-81
2023/07/04 08:20:08;;;;;;;7.30;2.95;;;;;;;;;;5029974;28;20045;-85
2023/07/04 08:22:38;;;;;;;5.88;3.17;;;;;;;;;;5047959;28;20045;-82
2023/07/04 08:25:07;;;;;;;6.88;2.65;;;;;;;;;;5032130;28;20042;-85
2023/07/04 08:27:34;;;;;;;4.53;2.80;;;;;;;;;;5030062;28;20080;-84
2023/07/04 08:30:00;;;;;;;8.45;2.95;;;;;;;;;;5028473;28;20053;-82
2023/07/04 08:32:29;;;;;;;7.05;2.90;;;;;;;;;;5027883;28;20048;-84
2023/07/04 08:34:56;;;;;;;8.55;3.30;;;;;;;;;;5010452;28;20083;-83
2023/07/04 08:37:23;;;;;;;8.68;3.38;;;;;;;;;;5012634;28;20080;-85
2023/07/04 08:39:50;;;;;;;5.97;3.28;;;;;;;;;;5010164;28;20103;-84
2023/07/04 08:42:17;;;;;;;9.25;3.05;;;;;;;;;;5032685;28;20102;-85
2023/07/04 08:44:46;;;;;;;6.60;3.10;;;;;;;;;;5043148;28;20041;-83
2023/07/04 08:47:25;;;;;;;5.30;2.83;;;;;;;;;;5044992;28;20049;-84
2023/07/04 08:50:00;;;;;;;8.25;3.28;;;;;;;;;;5023888;28;20045;-83
2023/07/04 08:52:39;;;;;;;8.70;3.00;;;;;;;;;;5027689;28;20049;-80
2023/07/04 08:55:08;;;;;;;7.90;3.40;;;;;;;;;;5024029;28;20041;-82
2023/07/04 08:57:35;;;;;;;9.88;3.50;;;;;;;;;;5025452;28;20050;-83
2023/07/04 09:00:06;;;;;;;7.28;3.40;;;;;;;;;;5000417;28;20042;-83
2023/07/04 09:02:33;;;;;;;5.38;2.85;;;;;;;;;;5000968;28;20080;-83
2023/07/04 09:05:20;;;;;;;7.93;3.40;;;;;;;;;;5001075;28;20050;-85
2023/07/04 09:08:06;;;;;;;10.38;3.25;;;;;;;;;;5001405;28;20529;-83
2023/07/04 09:10:39;;;;;;;5.63;3.10;;;;;;;;;;5002130;28;20080;-82
2023/07/04 09:13:08;;;;;;;6.72;3.60;;;;;;;;;;5000388;28;20080;-81
2023/07/04 09:15:36;;;;;;;6.53;3.28;;;;;;;;;;5018923;28;20050;-83
2023/07/04 09:18:02;;;;;;;7.55;3.65;;;;;;;;;;5001193;28;20042;-85
2023/07/04 09:20:59;;;;;;;6.75;3.38;;;;;;;;;;4999896;28;20072;-84
2023/07/04 09:23:26;;;;;;;9.85;3.25;;;;;;;;;;5020888;28;20053;-84
2023/07/04 09:25:54;;;;;;;5.25;2.92;;;;;;;;;;5020514;28;20288;-84
2023/07/04 09:28:20;;;;;;;7.97;3.15;;;;;;;;;;5003197;28;20068;-84
2023/07/04 09:30:47;;;;;;;8.88;3.33;;;;;;;;;;5005626;28;20549;-84
2023/07/04 09:33:17;;;;;;;5.22;3.20;;;;;;;;;;5002095;28;20100;-84
2023/07/04 09:35:44;;;;;;;11.05;3.67;;;;;;;;;;5004752;28;20058;-83
2023/07/04 09:38:11;;;;;;;11.68;4.00;;;;;;;;;;5018153;28;20048;-82
2023/07/04 09:40:39;;;;;;;8.32;3.80;;;;;;;;;;5014824;28;20068;-84
2023/07/04 09:43:07;;;;;;;9.52;4.07;;;;;;;;;;5034773;28;20042;-81
2023/07/04 09:45:37;;;;;;;10.25;5.00;;;;;;;;;;5028234;28;20081;-85
2023/07/04 09:48:05;;;;;;;11.02;5.03;;;;;;;;;;5014642;28;20112;-83
2023/07/04 09:50:34;;;;;;;9.70;4.78;;;;;;;;;;5019246;28;20043;-82
2023/07/04 09:53:11;;;;;;;11.82;5.00;;;;;;;;;;5016457;28;20045;-83
2023/07/04 09:55:38;;;;;;;10.48;4.90;;;;;;;;;;5018924;28;20126;-84
2023/07/04 09:58:18;;;;;;;8.77;4.45;;;;;;;;;;5035327;28;20069;-83
2023/07/04 10:00:59;;;;;;;6.45;4.15;;;;;;;;;;5040691;28;20038;-85
2023/07/04 10:03:25;;;;;;;10.48;5.63;;;;;;;;;;5021349;28;20121;-84
2023/07/04 10:05:55;;;;;;;10.10;5.82;;;;;;;;;;5021257;28;20056;-82
2023/07/04 10:08:22;;;;;;;9.38;5.15;;;;;;;;;;5019445;28;20077;-84
2023/07/04 10:10:50;;;;;;;7.45;5.05;;;;;;;;;;5017892;28;20041;-81
2023/07/04 10:13:23;;;;;;;8.95;5.15;;;;;;;;;;5021180;28;20107;-82
2023/07/04 10:15:50;;;;;;;8.18;4.63;;;;;;;;;;5040740;28;20050;-84
2023/07/04 10:18:31;;;;;;;9.23;5.00;;;;;;;;;;5040573;28;20037;-82
2023/07/04 10:20:58;;;;;;;10.30;4.75;;;;;;;;;;5027101;28;20041;-85
2023/07/04 10:23:26;;;;;;;10.38;5.78;;;;;;;;;;5023648;28;20053;-81
2023/07/04 10:25:57;;;;;;;8.85;5.05;;;;;;;;;;5017131;28;20037;-81
2023/07/04 10:28:25;;;;;;;11.02;5.00;;;;;;;;;;5022209;28;20270;-82
2023/07/04 10:30:55;;;;;;;11.63;6.85;;;;;;;;;;5022556;28;20414;-80
2023/07/04 10:33:34;;;;;;;11.23;7.38;;;;;;;;;;5022963;28;20834;-83
2023/07/04 10:36:00;;;;;;;11.55;6.53;;;;;;;;;;5021722;28;20049;-82
2023/07/04 10:38:47;;;;;;;10.45;6.47;;;;;;;;;;5023618;28;20103;-84
2023/07/04 10:41:14;;;;;;;12.40;6.20;;;;;;;;;;5031311;28;20236;-83
2023/07/04 10:43:45;;;;;;;11.15;6.10;;;;;;;;;;5019704;28;20042;-82
2023/07/04 10:46:15;;;;;;;9.65;5.78;;;;;;;;;;5016743;28;20050;-86
2023/07/04 10:48:44;;;;;;;8.63;5.50;;;;;;;;;;5040745;28;20444;-82
2023/07/04 10:51:18;;;;;;;12.20;5.80;;;;;;;;;;5022590;28;20063;-81
2023/07/04 10:53:45;;;;;;;8.85;5.55;;;;;;;;;;5041109;28;20115;-83
2023/07/04 10:56:14;;;;;;;9.35;5.57;;;;;;;;;;5040586;28;20057;-84
2023/07/04 10:58:43;;;;;;;10.55;5.53;;;;;;;;;;5042171;28;20060;-83
2023/07/04 11:01:13;;;;;;;11.82;6.70;;;;;;;;;;5042631;28;20038;-84
2023/07/04 11:03:51;;;;;;;13.23;6.57;;;;;;;;;;5023454;28;20544;-84
2023/07/04 11:06:37;;;;;;;8.88;6.10;;;;;;;;;;5040698;28;20042;-84
2023/07/04 11:09:07;;;;;;;10.18;6.35;;;;;;;;;;5037927;28;20156;-81
2023/07/04 11:11:33;;;;;;;12.35;6.88;;;;;;;;;;5017365;28;20041;-84
2023/07/04 11:14:06;;;;;;;16.33;6.70;;;;;;;;;;5020949;28;20041;-81
2023/07/04 11:16:36;;;;;;;11.90;7.38;;;;;;;;;;5020607;28;20477;-82
2023/07/04 11:19:06;;;;;;;13.55;7.55;;;;;;;;;;5008118;28;20068;-83
2023/07/04 11:21:33;;;;;;;11.88;8.02;;;;;;;;;;5023376;28;20045;-83
2023/07/04 11:24:09;;;;;;;12.05;7.55;;;;;;;;;;5022516;28;20045;-84
2023/07/04 11:26:50;;;;;;;11.43;7.47;;;;;;;;;;5023314;28;20045;-86
2023/07/04 11:29:18;;;;;;;12.60;7.35;;;;;;;;;;5042256;28;20120;-84
2023/07/04 11:32:08;;;;;;;13.77;8.10;;;;;;;;;;5029034;28;20048;-82
2023/07/04 11:34:44;;;;;;;15.15;8.77;;;;;;;;;;5014765;28;20046;-83
2023/07/04 11:37:15;;;;;;;15.02;8.52;;;;;;;;;;5020629;28;20093;-83
2023/07/04 11:39:46;;;;;;;14.30;9.05;;;;;;;;;;5039802;28;20046;-82
2023/07/04 11:42:21;;;;;;;18.80;11.50;;;;;;;;;;5006984;28;20037;-84
2023/07/04 11:44:48;;;;;;;19.80;10.15;;;;;;;;;;5031988;28;20045;-84
2023/07/04 11:47:18;;;;;;;18.02;10.73;;;;;;;;;;5023459;28;20045;-85
2023/07/04 11:49:53;;;;;;;16.20;8.82;;;;;;;;;;5047496;28;20045;-86
2023/07/04 11:52:20;;;;;;;;;;;;;;;;;;5026256;28;20052;-85
2023/07/04 11:54:55;;;;;;;13.60;8.88;;;;;;;;;;5020936;28;19921;-83
2023/07/04 11:57:22;;;;;;;19.67;11.23;;;;;;;;;;5005572;28;20458;-81
2023/07/04 11:59:51;;;;;;;21.20;10.07;;;;;;;;;;5017451;28;20046;-83
2023/07/04 12:02:28;;;;;;;17.00;10.00;;;;;;;;;;4983581;28;20042;-82
2023/07/04 12:04:56;;;;;;;21.90;13.05;;;;;;;;;;5000456;28;20042;-84
2023/07/04 12:07:23;;;;;;;19.10;10.98;;;;;;;;;;4995568;28;20064;-84
2023/07/04 12:10:05;;;;;;;15.52;10.25;;;;;;;;;;4998584;28;20045;-82
2023/07/04 12:12:33;;;;;;;16.63;9.05;;;;;;;;;;5018194;28;20526;-81
2023/07/04 12:15:08;;;;;;;16.73;10.02;;;;;;;;;;4984527;28;20057;-83
2023/07/04 12:17:39;;;;;;;14.88;8.85;;;;;;;;;;5021638;28;20072;-84
2023/07/04 12:20:09;;;;;;;107.10;11.30;;;;;;;;;;5002250;28;20061;-83
2023/07/04 12:22:43;;;;;;;94.45;9.65;;;;;;;;;;5019932;28;20049;-82
2023/07/04 12:25:19;;;;;;;17.30;8.52;;;;;;;;;;5020096;28;20046;-83
2023/07/04 12:27:45;;;;;;;19.65;10.07;;;;;;;;;;5020371;28;20041;-81
2023/07/04 12:30:13;;;;;;;22.50;10.52;;;;;;;;;;5014436;28;20112;-82
2023/07/04 12:32:40;;;;;;;22.25;11.90;;;;;;;;;;4982640;28;20159;-86
2023/07/04 12:35:11;;;;;;;20.02;11.50;;;;;;;;;;4968086;28;20164;-84
2023/07/04 12:37:43;;;;;;;18.90;10.75;;;;;;;;;;5011352;28;20042;-87
2023/07/04 12:40:13;;;;;;;19.95;11.20;;;;;;;;;;4973293;28;20056;-82
2023/07/04 12:42:40;;;;;;;21.45;11.50;;;;;;;;;;4981937;28;20517;-84
2023/07/04 12:45:09;;;;;;;19.13;11.70;;;;;;;;;;5012570;28;20038;-84
2023/07/04 12:47:36;;;;;;;18.67;12.50;;;;;;;;;;5039267;28;20139;-82
2023/07/04 12:50:04;;;;;;;18.38;12.13;;;;;;;;;;5019604;28;20056;-84
2023/07/04 12:52:33;;;;;;;26.35;12.13;;;;;;;;;;5039278;28;20046;-83
2023/07/04 12:55:01;;;;;;;19.58;12.93;;;;;;;;;;5024917;28;20077;-81
2023/07/04 12:57:28;;;;;;;20.73;13.80;;;;;;;;;;5018377;28;20068;-84
2023/07/04 13:00:13;;;;;;;22.00;14.15;;;;;;;;;;5017907;28;20130;-83
2023/07/04 13:02:44;;;;;;;21.70;14.05;;;;;;;;;;5019812;28;20634;-82
2023/07/04 13:05:15;;;;;;;19.45;13.20;;;;;;;;;;5019753;28;20045;-86
2023/07/04 13:07:43;;;;;;;19.98;13.20;;;;;;;;;;5021068;28;20049;-81
2023/07/04 13:10:10;;;;;;;18.60;12.48;;;;;;;;;;5022587;28;20101;-84
2023/07/04 13:12:36;;;;;;;19.10;12.38;;;;;;;;;;5023264;28;20042;-81
2023/07/04 13:15:07;;;;;;;40.95;13.50;;;;;;;;;;5021106;28;20064;-82
2023/07/04 13:17:34;;;;;;;18.02;13.00;;;;;;;;;;5020795;28;20466;-81
2023/07/04 13:20:16;;;;;;;21.65;12.80;;;;;;;;;;5013355;28;20540;-84
2023/07/04 13:22:43;;;;;;;21.42;12.98;;;;;;;;;;5016323;28;20037;-82
2023/07/04 13:25:24;;;;;;;18.63;12.52;;;;;;;;;;5034916;28;20108;-80
2023/07/04 13:28:10;;;;;;;20.17;13.23;;;;;;;;;;5011375;28;20057;-83
2023/07/04 13:30:40;;;;;;;19.98;13.00;;;;;;;;;;5021389;28;20037;-86
2023/07/04 13:33:29;;;;;;;20.38;12.48;;;;;;;;;;5003695;28;20056;-83
2023/07/04 13:36:04;;;;;;;18.85;12.02;;;;;;;;;;5033953;28;20032;-84
2023/07/04 13:38:32;;;;;;;20.67;13.13;;;;;;;;;;5039935;28;20083;-81
2023/07/04 13:41:03;;;;;;;18.42;12.32;;;;;;;;;;5011176;28;20053;-80
2023/07/04 13:43:30;;;;;;;21.08;13.10;;;;;;;;;;5007094;28;20097;-85
2023/07/04 13:46:02;;;;;;;26.13;13.30;;;;;;;;;;5028826;28;20075;-85
2023/07/04 13:48:31;;;;;;;22.02;13.85;;;;;;;;;;5007496;28;20053;-78
2023/07/04 13:50:59;;;;;;;18.08;12.05;;;;;;;;;;4999197;28;20455;-78
2023/07/04 13:53:26;;;;;;;21.73;12.48;;;;;;;;;;5017384;28;20042;-78
2023/07/04 13:55:54;;;;;;;22.08;12.32;;;;;;;;;;5025893;28;20046;-78
2023/07/04 13:58:21;;;;;;;21.73;12.60;;;;;;;;;;5011840;28;20069;-76
2023/07/04 14:00:48;;;;;;;18.25;11.80;;;;;;;;;;5012593;28;20073;-78
2023/07/04 14:03:17;;;;;;;20.92;12.35;;;;;;;;;;5008439;28;20096;-78
2023/07/04 14:05:47;;;;;;;24.42;13.65;;;;;;;;;;5009819;28;20051;-77
2023/07/04 14:08:22;;;;;;;22.00;13.27;;;;;;;;;;5027867;28;20065;-78
2023/07/04 14:10:49;;;;;;;19.55;12.27;;;;;;;;;;5028761;28;20046;-78
2023/07/04 14:13:15;;;;;;;19.27;12.07;;;;;;;;;;5007281;28;20693;-83
2023/07/04 14:15:52;;;;;;;24.15;11.95;;;;;;;;;;5016087;28;20045;-85
2023/07/04 14:18:22;;;;;;;23.98;12.50;;;;;;;;;;5000192;28;20053;-85
2023/07/04 14:20:52;;;;;;;20.33;12.90;;;;;;;;;;5005111;28;20072;-87
2023/07/04 14:23:19;;;;;;;18.67;12.02;;;;;;;;;;5009097;28;20046;-85
2023/07/04 14:25:48;;;;;;;18.33;12.15;;;;;;;;;;5016000;28;20042;-84
2023/07/04 14:28:15;;;;;;;18.90;12.48;;;;;;;;;;5017375;28;20064;-81
2023/07/04 14:30:45;;;;;;;18.48;12.55;;;;;;;;;;5016034;28;20049;-83
2023/07/04 14:33:12;;;;;;;20.90;12.00;;;;;;;;;;5020408;28;20052;-81
2023/07/04 14:35:39;;;;;;;18.83;12.32;;;;;;;;;;5025701;28;20038;-83
2023/07/04 14:38:06;;;;;;;20.80;11.65;;;;;;;;;;5010396;28;20041;-83
2023/07/04 14:40:39;;;;;;;19.67;11.65;;;;;;;;;;5032911;28;20072;-84
2023/07/04 14:43:20;;;;;;;18.95;11.10;;;;;;;;;;5018606;28;20049;-81
2023/07/04 14:46:00;;;;;;;22.90;12.43;;;;;;;;;;5016253;28;20056;-82
2023/07/04 14:48:27;;;;;;;20.15;12.57;;;;;;;;;;4984718;28;1203174;-82